createdAt,value
2023-02-11T00:00:31.454Z,1.89
2023-02-11T00:03:20.952Z,1.88
2023-02-11T00:05:59.481Z,1.89
2023-02-11T00:08:28.936Z,1.90
2023-02-11T00:10:59.042Z,1.89
2023-02-11T00:13:30.892Z,1.92
2023-02-11T00:16:00.507Z,1.92
2023-02-11T00:18:29.509Z,1.92
2023-02-11T00:21:01.287Z,1.92
2023-02-11T00:23:31.050Z,1.93
2023-02-11T00:25:59.945Z,1.95
2023-02-11T00:28:29.006Z,1.93
2023-02-11T00:30:58.960Z,1.95
2023-02-11T00:33:28.104Z,1.95
2023-02-11T00:36:03.490Z,1.95
2023-02-11T00:38:32.521Z,1.98
2023-02-11T00:41:01.588Z,1.95
2023-02-11T00:43:30.729Z,1.98
2023-02-11T00:46:00.199Z,1.98
2023-02-11T00:48:29.271Z,1.98
2023-02-11T00:50:58.384Z,2.00
2023-02-11T00:53:28.164Z,1.98
2023-02-11T00:55:57.520Z,1.98
2023-02-11T00:58:28.949Z,1.98
2023-02-11T01:00:58.315Z,1.95
2023-02-11T01:03:27.752Z,1.98
2023-02-11T01:05:58.033Z,1.95
2023-02-11T01:08:27.425Z,1.98
2023-02-11T01:10:58.528Z,1.95
2023-02-11T01:13:34.705Z,1.95
2023-02-11T01:16:06.795Z,1.96
2023-02-11T01:18:41.409Z,1.96
2023-02-11T01:21:11.985Z,1.95
2023-02-11T01:23:41.042Z,1.95
2023-02-11T01:26:13.650Z,1.96
2023-02-11T01:28:42.990Z,1.93
2023-02-11T01:31:14.956Z,1.93
2023-02-11T01:33:44.460Z,1.92
2023-02-11T01:36:18.721Z,1.92
2023-02-11T01:38:49.401Z,1.93
2023-02-11T01:41:18.295Z,1.89
2023-02-11T01:43:49.909Z,1.90
2023-02-11T01:46:33.902Z,1.92
2023-02-11T01:49:07.290Z,1.92
2023-02-11T01:51:41.179Z,1.95
2023-02-11T01:54:32.596Z,1.95
2023-02-11T01:57:24.249Z,1.96
2023-02-11T02:00:06.158Z,1.95
2023-02-11T02:02:52.425Z,1.96
2023-02-11T02:05:28.556Z,1.98
2023-02-11T02:08:07.797Z,1.98
2023-02-11T02:10:42.820Z,1.99
2023-02-11T02:13:12.271Z,1.99
2023-02-11T02:15:48.022Z,2.02
2023-02-11T02:18:31.303Z,1.98
2023-02-11T02:21:38.618Z,1.99
2023-02-11T02:24:51.982Z,1.98
2023-02-11T02:27:41.867Z,1.98
2023-02-11T02:30:44.576Z,1.99
2023-02-11T02:33:33.477Z,1.93
2023-02-11T02:36:15.144Z,1.95
2023-02-11T02:38:52.981Z,1.95
2023-02-11T02:41:26.749Z,1.95
2023-02-11T02:43:59.163Z,1.92
2023-02-11T02:46:31.004Z,1.93
2023-02-11T02:49:01.018Z,1.93
2023-02-11T02:51:51.190Z,1.93
2023-02-11T02:54:45.543Z,1.95
2023-02-11T02:57:32.030Z,1.96
2023-02-11T03:00:18.850Z,1.95
2023-02-11T03:02:58.142Z,1.99
2023-02-11T03:05:38.547Z,1.96
2023-02-11T03:08:11.698Z,1.98
2023-02-11T03:10:45.430Z,1.96
2023-02-11T03:13:16.897Z,1.96
2023-02-11T03:15:51.145Z,2.02
2023-02-11T03:18:22.753Z,2.03
2023-02-11T03:20:54.552Z,2.05
2023-02-11T03:23:28.800Z,2.06
2023-02-11T03:26:03.192Z,2.09
2023-02-11T03:28:38.502Z,2.09
2023-02-11T03:31:15.170Z,2.07
2023-02-11T03:34:00.218Z,2.06
2023-02-11T03:36:40.497Z,2.06
2023-02-11T03:39:11.304Z,2.05
2023-02-11T03:41:44.020Z,2.03
2023-02-11T03:44:15.784Z,2.05
2023-02-11T03:46:50.418Z,2.03
2023-02-11T03:49:22.154Z,2.05
2023-02-11T03:51:53.564Z,2.03
2023-02-11T03:54:28.759Z,2.02
2023-02-11T03:57:01.007Z,2.02
2023-02-11T03:59:29.960Z,2.03
2023-02-11T04:02:00.496Z,2.03
2023-02-11T04:04:29.476Z,2.02
2023-02-11T04:06:58.212Z,2.00
2023-02-11T04:09:26.932Z,2.02
2023-02-11T04:11:55.819Z,2.02
2023-02-11T04:14:24.603Z,2.00
2023-02-11T04:16:53.490Z,1.98
2023-02-11T04:19:22.566Z,1.96
2023-02-11T04:21:51.317Z,1.93
2023-02-11T04:24:27.660Z,1.90
2023-02-11T04:26:56.660Z,1.89
2023-02-11T04:29:25.572Z,1.88
2023-02-11T04:31:55.257Z,1.85
2023-02-11T04:34:24.447Z,1.88
2023-02-11T04:36:53.880Z,1.85
2023-02-11T04:39:22.826Z,1.83
2023-02-11T04:41:51.745Z,1.82
2023-02-11T04:44:23.669Z,1.81
2023-02-11T04:46:53.076Z,1.78
2023-02-11T04:49:21.988Z,1.78
2023-02-11T04:51:53.017Z,1.77
2023-02-11T04:54:21.928Z,1.75
2023-02-11T04:56:51.052Z,1.77
2023-02-11T04:59:20.614Z,1.77
2023-02-11T05:01:49.937Z,1.75
2023-02-11T05:04:19.495Z,1.77
2023-02-11T05:06:48.519Z,1.81
2023-02-11T05:09:17.703Z,1.79
2023-02-11T05:11:46.715Z,1.78
2023-02-11T05:14:15.863Z,1.79
2023-02-11T05:16:44.890Z,1.82
2023-02-11T05:19:13.993Z,1.82
2023-02-11T05:21:56.596Z,1.85
2023-02-11T05:24:29.909Z,1.83
2023-02-11T05:26:59.813Z,1.85
2023-02-11T05:29:29.229Z,1.83
2023-02-11T05:31:59.675Z,1.85
2023-02-11T05:34:29.430Z,1.85
2023-02-11T05:36:58.722Z,1.86
2023-02-11T05:39:27.999Z,1.83
2023-02-11T05:42:00.226Z,1.85
2023-02-11T05:44:29.471Z,1.83
2023-02-11T05:47:01.228Z,1.88
2023-02-11T05:49:30.381Z,1.86
2023-02-11T05:52:00.803Z,1.89
2023-02-11T05:54:29.822Z,1.89
2023-02-11T05:56:59.113Z,1.90
2023-02-11T05:59:28.112Z,1.93
2023-02-11T06:01:57.800Z,1.92
2023-02-11T06:04:27.723Z,1.98
2023-02-11T06:06:57.273Z,1.96
2023-02-11T06:09:26.497Z,1.96
2023-02-11T06:11:55.672Z,1.99
2023-02-11T06:14:25.174Z,2.00
2023-02-11T06:16:54.137Z,2.03
2023-02-11T06:19:23.631Z,2.02
2023-02-11T06:21:52.728Z,2.05
2023-02-11T06:24:47.815Z,2.05
2023-02-11T06:27:14.986Z,2.06
2023-02-11T06:29:52.271Z,2.07
2023-02-11T06:32:42.383Z,2.12
2023-02-11T06:35:12.084Z,2.12
2023-02-11T06:37:42.615Z,2.13
2023-02-11T06:40:13.401Z,2.17
2023-02-11T06:42:42.653Z,2.16
2023-02-11T06:45:13.423Z,2.18
2023-02-11T06:47:42.510Z,2.20
2023-02-11T06:50:14.668Z,2.24
2023-02-11T06:52:44.263Z,2.27
2023-02-11T06:55:13.638Z,2.29
2023-02-11T06:57:42.553Z,2.33
2023-02-11T07:00:15.843Z,2.36
2023-02-11T07:02:51.057Z,2.40
2023-02-11T07:05:20.186Z,2.40
2023-02-11T07:07:49.427Z,2.41
2023-02-11T07:10:18.828Z,2.43
2023-02-11T07:12:47.964Z,2.41
2023-02-11T07:15:17.424Z,2.38
2023-02-11T07:17:48.500Z,2.38
2023-02-11T07:20:18.066Z,2.36
2023-02-11T07:22:46.961Z,2.34
2023-02-11T07:25:18.512Z,2.36
2023-02-11T07:27:47.645Z,2.34
2023-02-11T07:30:16.990Z,2.34
2023-02-11T07:32:45.927Z,2.32
2023-02-11T07:35:15.251Z,2.29
2023-02-11T07:37:44.091Z,2.29
2023-02-11T07:40:16.691Z,2.27
2023-02-11T07:42:45.892Z,2.23
2023-02-11T07:45:15.207Z,2.18
2023-02-11T07:47:45.301Z,2.18
2023-02-11T07:50:14.207Z,2.17
2023-02-11T07:52:43.152Z,2.16
2023-02-11T07:55:12.009Z,2.17
2023-02-11T07:57:41.702Z,2.18
2023-02-11T08:00:13.718Z,2.24
2023-02-11T08:02:42.680Z,2.23
2023-02-11T08:05:11.775Z,2.23
2023-02-11T08:07:41.379Z,2.21
2023-02-11T08:10:10.464Z,2.18
2023-02-11T08:12:42.726Z,2.20
2023-02-11T08:15:11.585Z,2.17
2023-02-11T08:17:41.057Z,2.14
2023-02-11T08:20:16.874Z,2.16
2023-02-11T08:22:46.069Z,2.14
2023-02-11T08:25:15.142Z,2.16
2023-02-11T08:27:44.084Z,2.16
2023-02-11T08:30:14.652Z,2.13
2023-02-11T08:32:45.225Z,2.13
2023-02-11T08:35:15.048Z,2.13
2023-02-11T08:37:44.008Z,2.12
2023-02-11T08:40:13.148Z,2.09
2023-02-11T08:42:42.088Z,2.05
2023-02-11T08:45:12.871Z,2.07
2023-02-11T08:47:41.955Z,2.05
2023-02-11T08:50:11.517Z,2.06
2023-02-11T08:52:40.382Z,2.07
2023-02-11T08:55:09.574Z,2.10
2023-02-11T08:57:40.979Z,2.16
2023-02-11T09:00:12.207Z,2.18
2023-02-11T09:02:41.206Z,2.23
2023-02-11T09:05:12.551Z,2.30
2023-02-11T09:07:41.544Z,2.36
2023-02-11T09:10:10.818Z,2.37
2023-02-11T09:12:41.335Z,2.41
2023-02-11T09:15:10.863Z,2.43
2023-02-11T09:17:40.248Z,2.43
2023-02-11T09:20:11.716Z,2.43
2023-02-11T09:22:40.585Z,2.47
2023-02-11T09:25:09.879Z,2.50
2023-02-11T09:27:41.110Z,2.51
2023-02-11T09:30:12.162Z,2.53
2023-02-11T09:32:43.513Z,2.51
2023-02-11T09:35:12.448Z,2.51
2023-02-11T09:37:41.435Z,2.51
2023-02-11T09:40:12.599Z,2.51
2023-02-11T09:42:50.811Z,2.51
2023-02-11T09:45:23.023Z,2.50
2023-02-11T09:47:56.720Z,2.51
2023-02-11T09:50:29.823Z,2.48
2023-02-11T09:53:02.541Z,2.50
2023-02-11T09:55:38.067Z,2.50
2023-02-11T09:58:12.281Z,2.48
2023-02-11T10:00:47.092Z,2.48
2023-02-11T10:03:55.155Z,2.48
2023-02-11T10:06:41.621Z,2.47
2023-02-11T10:09:32.108Z,2.48
2023-02-11T10:12:18.815Z,2.47
2023-02-11T10:15:04.799Z,2.48
2023-02-11T10:17:47.020Z,2.50
2023-02-11T10:20:29.031Z,2.53
2023-02-11T10:23:01.084Z,2.53
2023-02-11T10:25:36.321Z,2.55
2023-02-11T10:28:14.845Z,2.51
2023-02-11T10:30:57.911Z,2.51
2023-02-11T10:33:31.980Z,2.55
2023-02-11T10:36:01.169Z,2.51
2023-02-11T10:38:30.789Z,2.53
2023-02-11T10:40:59.880Z,2.53
2023-02-11T10:43:31.109Z,2.48
2023-02-11T10:46:03.041Z,2.50
2023-02-11T10:48:44.157Z,2.50
2023-02-11T10:51:23.192Z,2.51
2023-02-11T10:54:14.023Z,2.50
2023-02-11T10:56:46.827Z,2.51
2023-02-11T10:59:21.691Z,2.53
2023-02-11T11:01:53.889Z,2.53
2023-02-11T11:04:40.700Z,2.58
2023-02-11T11:07:28.134Z,2.58
2023-02-11T11:10:01.872Z,2.58
2023-02-11T11:12:42.076Z,2.62
2023-02-11T11:15:21.103Z,2.64
2023-02-11T11:17:51.817Z,2.64
2023-02-11T11:20:26.680Z,2.65
2023-02-11T11:23:12.008Z,2.65
2023-02-11T11:25:43.547Z,2.69
2023-02-11T11:28:22.558Z,2.68
2023-02-11T11:30:54.177Z,2.69
2023-02-11T11:33:27.639Z,2.71
2023-02-11T11:36:06.360Z,2.69
2023-02-11T11:38:38.266Z,2.71
2023-02-11T11:41:26.256Z,2.71
2023-02-11T11:43:58.368Z,2.73
2023-02-11T11:46:31.760Z,2.73
2023-02-11T11:49:13.295Z,2.75
2023-02-11T11:51:46.405Z,2.75
2023-02-11T11:54:19.832Z,2.76
2023-02-11T11:56:56.256Z,2.79
2023-02-11T11:59:25.312Z,2.81
2023-02-11T12:02:11.778Z,2.83
2023-02-11T12:05:00.798Z,2.85
2023-02-11T12:07:45.852Z,2.90
2023-02-11T12:10:29.797Z,2.90
2023-02-11T12:13:19.393Z,2.90
2023-02-11T12:16:00.302Z,2.90
2023-02-11T12:18:47.908Z,2.90
2023-02-11T12:21:39.924Z,2.92
2023-02-11T12:24:24.773Z,2.98
2023-02-11T12:27:01.182Z,2.96
2023-02-11T12:29:42.869Z,2.99
2023-02-11T12:32:22.832Z,2.99
2023-02-11T12:35:09.481Z,3.03
2023-02-11T12:37:49.878Z,3.02
2023-02-11T12:40:28.075Z,3.03
2023-02-11T12:43:17.056Z,3.06
2023-02-11T12:45:59.716Z,3.06
2023-02-11T12:49:03.838Z,3.04
2023-02-11T12:51:50.156Z,3.07
2023-02-11T12:54:29.689Z,3.10
2023-02-11T12:57:03.601Z,3.14
2023-02-11T12:59:51.566Z,3.17
2023-02-11T13:02:30.710Z,3.21
2023-02-11T13:05:05.714Z,3.27
2023-02-11T13:07:42.301Z,3.30
2023-02-11T13:10:32.949Z,3.34
2023-02-11T13:13:20.417Z,3.35
2023-02-11T13:15:53.817Z,3.40
2023-02-11T13:18:50.299Z,3.45
2023-02-11T13:21:47.847Z,3.48
2023-02-11T13:24:29.684Z,3.48
2023-02-11T13:27:11.664Z,3.51
2023-02-11T13:30:10.813Z,3.51
2023-02-11T13:33:06.441Z,3.52
2023-02-11T13:35:38.612Z,3.55
2023-02-11T13:38:19.026Z,3.55
2023-02-11T13:41:01.603Z,3.55
2023-02-11T13:43:32.807Z,3.55
2023-02-11T13:46:04.684Z,3.54
2023-02-11T13:48:39.108Z,3.58
2023-02-11T13:51:11.359Z,3.57
2023-02-11T13:53:49.652Z,3.58
2023-02-11T13:56:34.480Z,3.54
2023-02-11T13:59:06.002Z,3.54
2023-02-11T14:02:14.734Z,3.55
2023-02-11T14:05:28.871Z,3.54
2023-02-11T14:08:43.638Z,3.57
2023-02-11T14:11:50.461Z,3.54
2023-02-11T14:14:27.707Z,3.55
2023-02-11T14:17:31.175Z,3.52
2023-02-11T14:20:08.354Z,3.54
2023-02-11T14:22:50.162Z,3.54
2023-02-11T14:25:23.997Z,3.55
2023-02-11T14:28:10.427Z,3.55
2023-02-11T14:31:05.072Z,3.55
2023-02-11T14:34:17.183Z,3.55
2023-02-11T14:37:11.981Z,3.57
2023-02-11T14:40:11.445Z,3.55
2023-02-11T14:42:53.465Z,3.58
2023-02-11T14:45:32.005Z,3.55
2023-02-11T14:48:08.367Z,3.57
2023-02-11T14:50:52.547Z,3.57
2023-02-11T14:53:31.871Z,3.61
2023-02-11T14:56:06.098Z,3.59
2023-02-11T14:58:50.363Z,3.59
2023-02-11T15:01:32.264Z,3.59
2023-02-11T15:04:26.351Z,3.58
2023-02-11T15:07:12.178Z,3.58
2023-02-11T15:09:54.034Z,3.58
2023-02-11T15:12:47.292Z,3.59
2023-02-11T15:15:19.387Z,3.59
2023-02-11T15:18:00.697Z,3.59
2023-02-11T15:20:36.054Z,3.58
2023-02-11T15:23:22.744Z,3.59
2023-02-11T15:25:55.359Z,3.57
2023-02-11T15:28:31.970Z,3.54
2023-02-11T15:31:06.916Z,3.57
2023-02-11T15:33:38.900Z,3.57
2023-02-11T15:36:16.308Z,3.58
2023-02-11T15:38:49.516Z,3.57
2023-02-11T15:41:51.471Z,3.61
2023-02-11T15:44:33.877Z,3.59
2023-02-11T15:47:12.326Z,3.59
2023-02-11T15:49:46.520Z,3.59
2023-02-11T15:52:22.097Z,3.59
2023-02-11T15:54:52.984Z,3.61
2023-02-11T15:57:23.424Z,3.61
2023-02-11T15:59:54.757Z,3.61
2023-02-11T16:02:30.026Z,3.59
2023-02-11T16:05:00.817Z,3.63
2023-02-11T16:07:49.206Z,3.63
2023-02-11T16:10:24.016Z,3.66
2023-02-11T16:13:03.037Z,3.68
2023-02-11T16:15:49.495Z,3.68
2023-02-11T16:18:40.335Z,3.68
2023-02-11T16:21:19.517Z,3.69
2023-02-11T16:23:53.485Z,3.69
2023-02-11T16:26:27.764Z,3.69
2023-02-11T16:29:03.971Z,3.73
2023-02-11T16:31:39.478Z,3.75
2023-02-11T16:34:16.488Z,3.75
2023-02-11T16:36:46.442Z,3.75
2023-02-11T16:39:16.851Z,3.79
2023-02-11T16:41:46.147Z,3.78
2023-02-11T16:44:15.295Z,3.80
2023-02-11T16:46:45.280Z,3.82
2023-02-11T16:49:21.517Z,3.80
2023-02-11T16:51:53.111Z,3.80
2023-02-11T16:54:22.690Z,3.83
2023-02-11T16:56:51.766Z,3.80
2023-02-11T16:59:20.987Z,3.82
2023-02-11T17:01:52.316Z,3.80
2023-02-11T17:04:25.668Z,3.83
2023-02-11T17:06:57.915Z,3.85
2023-02-11T17:09:30.899Z,3.86
2023-02-11T17:12:00.856Z,3.89
2023-02-11T17:14:30.112Z,3.89
2023-02-11T17:17:01.134Z,3.89
2023-02-11T17:19:30.333Z,3.89
2023-02-11T17:22:00.048Z,3.90
2023-02-11T17:24:32.026Z,3.92
2023-02-11T17:27:03.789Z,3.90
2023-02-11T17:29:33.067Z,3.90
2023-02-11T17:32:02.301Z,3.90
2023-02-11T17:34:33.033Z,3.93
2023-02-11T17:37:08.390Z,3.93
2023-02-11T17:39:39.571Z,3.93
2023-02-11T17:42:11.219Z,3.94
2023-02-11T17:44:40.748Z,3.97
2023-02-11T17:47:09.943Z,3.94
2023-02-11T17:49:41.310Z,3.97
2023-02-11T17:52:14.550Z,3.97
2023-02-11T17:54:49.467Z,4.00
2023-02-11T17:57:18.917Z,4.00
2023-02-11T17:59:48.864Z,3.99
2023-02-11T18:02:18.984Z,3.97
2023-02-11T18:04:51.287Z,4.00
2023-02-11T18:07:20.631Z,4.00
2023-02-11T18:09:50.287Z,4.00
2023-02-11T18:12:24.820Z,4.01
2023-02-11T18:14:57.843Z,4.03
2023-02-11T18:17:27.822Z,4.04
2023-02-11T18:19:57.597Z,4.03
2023-02-11T18:22:26.922Z,4.03
2023-02-11T18:24:56.354Z,4.01
2023-02-11T18:27:25.356Z,4.04
2023-02-11T18:29:57.573Z,4.04
2023-02-11T18:32:27.162Z,4.06
2023-02-11T18:34:56.127Z,4.07
2023-02-11T18:37:33.027Z,4.07
2023-02-11T18:40:02.378Z,4.07
2023-02-11T18:42:34.151Z,4.10
2023-02-11T18:45:03.817Z,4.11
2023-02-11T18:47:33.377Z,4.11
2023-02-11T18:50:02.713Z,4.13
2023-02-11T18:52:32.737Z,4.11
2023-02-11T18:55:01.801Z,4.13
2023-02-11T18:57:31.131Z,4.14
2023-02-11T19:00:00.940Z,4.14
2023-02-11T19:02:32.739Z,4.18
2023-02-11T19:05:02.290Z,4.16
2023-02-11T19:07:34.244Z,4.20
2023-02-11T19:10:03.906Z,4.18
2023-02-11T19:12:40.712Z,4.20
2023-02-11T19:15:14.781Z,4.21
2023-02-11T19:17:49.893Z,4.20
2023-02-11T19:20:20.327Z,4.21
2023-02-11T19:23:03.091Z,4.24
2023-02-11T19:25:53.039Z,4.24
2023-02-11T19:28:31.648Z,4.25
2023-02-11T19:31:18.060Z,4.25
2023-02-11T19:34:00.255Z,4.27
2023-02-11T19:36:46.111Z,4.27
2023-02-11T19:39:34.480Z,4.29
2023-02-11T19:42:12.216Z,4.31
2023-02-11T19:44:52.581Z,4.35
2023-02-11T19:47:27.238Z,4.34
2023-02-11T19:50:00.490Z,4.39
2023-02-11T19:52:32.040Z,4.41
2023-02-11T19:55:04.408Z,4.44
2023-02-11T19:57:42.672Z,4.47
2023-02-11T20:00:20.940Z,4.48
2023-02-11T20:02:55.813Z,4.51
2023-02-11T20:05:28.366Z,4.55
2023-02-11T20:07:59.331Z,4.55
2023-02-11T20:10:29.241Z,4.58
2023-02-11T20:13:03.995Z,4.61
2023-02-11T20:15:43.153Z,4.62
2023-02-11T20:18:21.671Z,4.62
2023-02-11T20:20:57.473Z,4.61
2023-02-11T20:23:33.109Z,4.58
2023-02-11T20:26:10.998Z,4.59
2023-02-11T20:28:43.757Z,4.59
2023-02-11T20:31:16.149Z,4.59
2023-02-11T20:33:52.420Z,4.56
2023-02-11T20:36:38.866Z,4.56
2023-02-11T20:39:20.942Z,4.59
2023-02-11T20:41:59.753Z,4.59
2023-02-11T20:44:44.411Z,4.59
2023-02-11T20:47:16.587Z,4.56
2023-02-11T20:49:55.603Z,4.56
2023-02-11T20:52:41.482Z,4.58
2023-02-11T20:55:21.586Z,4.58
2023-02-11T20:57:54.876Z,4.61
2023-02-11T21:00:29.294Z,4.58
2023-02-11T21:03:08.894Z,4.58
2023-02-11T21:05:58.035Z,4.61
2023-02-11T21:08:34.444Z,4.58
2023-02-11T21:11:08.975Z,4.62
2023-02-11T21:13:46.120Z,4.61
2023-02-11T21:16:26.842Z,4.63
2023-02-11T21:19:01.536Z,4.66
2023-02-11T21:21:34.607Z,4.63
2023-02-11T21:24:13.589Z,4.68
2023-02-11T21:26:49.363Z,4.69
2023-02-11T21:29:25.281Z,4.65
2023-02-11T21:32:10.594Z,4.71
2023-02-11T21:34:47.324Z,4.73
2023-02-11T21:37:18.487Z,4.76
2023-02-11T21:39:51.392Z,4.72
2023-02-11T21:42:22.299Z,4.73
2023-02-11T21:44:55.280Z,4.69
2023-02-11T21:47:28.125Z,4.71
2023-02-11T21:50:05.538Z,4.68
2023-02-11T21:52:36.125Z,4.65
2023-02-11T21:55:08.982Z,4.62
2023-02-11T21:57:39.245Z,4.54
2023-02-11T22:00:11.988Z,4.48
2023-02-11T22:02:41.893Z,4.41
2023-02-11T22:05:11.175Z,4.35
2023-02-11T22:07:41.095Z,4.28
2023-02-11T22:10:11.321Z,4.21
2023-02-11T22:12:40.956Z,4.11
2023-02-11T22:15:11.511Z,4.03
2023-02-11T22:17:42.608Z,3.99
2023-02-11T22:20:12.900Z,3.94
2023-02-11T22:22:41.927Z,3.89
2023-02-11T22:25:11.129Z,3.86
2023-02-11T22:27:41.106Z,3.82
2023-02-11T22:30:12.353Z,3.79
2023-02-11T22:32:46.314Z,3.76
2023-02-11T22:35:15.871Z,3.75
2023-02-11T22:37:44.860Z,3.72
2023-02-11T22:40:14.905Z,3.69
2023-02-11T22:42:44.275Z,3.66
2023-02-11T22:45:14.124Z,3.62
2023-02-11T22:47:44.513Z,3.58
2023-02-11T22:50:14.425Z,3.57
2023-02-11T22:52:44.076Z,3.54
2023-02-11T22:55:13.674Z,3.51
2023-02-11T22:57:45.991Z,3.48
2023-02-11T23:00:17.491Z,3.44
2023-02-11T23:02:51.251Z,3.41
2023-02-11T23:05:20.521Z,3.35
2023-02-11T23:07:49.576Z,3.28
2023-02-11T23:10:19.143Z,3.26
2023-02-11T23:12:48.323Z,3.21
2023-02-11T23:15:17.714Z,3.16
2023-02-11T23:17:47.024Z,3.11
2023-02-11T23:20:16.214Z,3.06
2023-02-11T23:22:45.587Z,3.03
2023-02-11T23:25:14.912Z,2.95
2023-02-11T23:27:44.529Z,2.86
2023-02-11T23:30:15.352Z,2.82
2023-02-11T23:32:46.836Z,2.71
2023-02-11T23:35:21.721Z,2.68
2023-02-11T23:37:51.942Z,2.62
2023-02-11T23:40:21.953Z,2.50
2023-02-11T23:42:51.793Z,2.40
2023-02-11T23:45:22.106Z,2.34
2023-02-11T23:47:52.014Z,2.26
2023-02-11T23:50:24.175Z,2.23
2023-02-11T23:52:53.214Z,2.18
2023-02-11T23:55:22.853Z,2.18
2023-02-11T23:57:51.946Z,2.12
